sensor_id;sensor_type;location;lat;lon;timestamp;pressure;altitude;pressure_sealevel;temperature;humidity
54270;BME280;40181;51.560;13.000;2023-05-21T00:00:14;100954.72;;;16.02;86.79
54270;BME280;40181;51.560;13.000;2023-05-21T00:02:45;100958.28;;;15.99;87.13
54270;BME280;40181;51.560;13.000;2023-05-21T00:05:15;100959.16;;;16.03;87.10
54270;BME280;40181;51.560;13.000;2023-05-21T00:07:45;100952.97;;;16.01;87.11
54270;BME280;40181;51.560;13.000;2023-05-21T00:10:17;100952.97;;;16.02;87.03
54270;BME280;40181;51.560;13.000;2023-05-21T00:12:46;100961.81;;;16.08;86.60
54270;BME280;40181;51.560;13.000;2023-05-21T00:15:18;100960.91;;;16.13;86.52
54270;BME280;40181;51.560;13.000;2023-05-21T00:17:47;100949.44;;;16.02;86.83
54270;BME280;40181;51.560;13.000;2023-05-21T00:20:16;100947.69;;;15.98;87.39
54270;BME280;40181;51.560;13.000;2023-05-21T00:22:46;100948.56;;;15.87;87.41
54270;BME280;40181;51.560;13.000;2023-05-21T00:25:15;100955.63;;;15.88;87.76
54270;BME280;40181;51.560;13.000;2023-05-21T00:27:44;100945.03;;;15.93;87.54
54270;BME280;40181;51.560;13.000;2023-05-21T00:30:13;100936.22;;;15.94;87.38
54270;BME280;40181;51.560;13.000;2023-05-21T00:32:45;100942.41;;;15.77;88.39
54270;BME280;40181;51.560;13.000;2023-05-21T00:35:15;100932.66;;;15.95;87.52
54270;BME280;40181;51.560;13.000;2023-05-21T00:37:44;100936.19;;;15.99;87.21
54270;BME280;40181;51.560;13.000;2023-05-21T00:40:13;100944.16;;;15.96;87.69
54270;BME280;40181;51.560;13.000;2023-05-21T00:42:42;100935.31;;;15.75;88.68
54270;BME280;40181;51.560;13.000;2023-05-21T00:45:12;100930.03;;;15.72;88.75
54270;BME280;40181;51.560;13.000;2023-05-21T00:47:44;100938.88;;;15.74;88.56
54270;BME280;40181;51.560;13.000;2023-05-21T00:50:18;100927.41;;;15.52;89.86
54270;BME280;40181;51.560;13.000;2023-05-21T00:52:48;100932.72;;;15.69;89.15
54270;BME280;40181;51.560;13.000;2023-05-21T00:55:18;100936.25;;;15.57;89.75
54270;BME280;40181;51.560;13.000;2023-05-21T00:57:48;100932.72;;;15.58;90.13
54270;BME280;40181;51.560;13.000;2023-05-21T01:00:17;100931.81;;;15.62;90.00
54270;BME280;40181;51.560;13.000;2023-05-21T01:02:51;100927.44;;;15.48;89.91
54270;BME280;40181;51.560;13.000;2023-05-21T01:05:20;100918.59;;;15.49;90.32
54270;BME280;40181;51.560;13.000;2023-05-21T01:07:49;100919.50;;;15.55;89.64
54270;BME280;40181;51.560;13.000;2023-05-21T01:10:18;100917.72;;;15.51;90.65
54270;BME280;40181;51.560;13.000;2023-05-21T01:12:48;100923.91;;;15.49;90.71
54270;BME280;40181;51.560;13.000;2023-05-21T01:15:18;100909.78;;;15.52;89.79
54270;BME280;40181;51.560;13.000;2023-05-21T01:17:47;100906.25;;;15.48;90.46
54270;BME280;40181;51.560;13.000;2023-05-21T01:20:20;100903.59;;;15.48;90.25
54270;BME280;40181;51.560;13.000;2023-05-21T01:22:55;100914.19;;;15.48;90.12
54270;BME280;40181;51.560;13.000;2023-05-21T01:25:24;100916.00;;;15.18;91.81
54270;BME280;40181;51.560;13.000;2023-05-21T01:27:53;100908.91;;;15.24;91.80
54270;BME280;40181;51.560;13.000;2023-05-21T01:30:23;100905.41;;;15.32;91.13
54270;BME280;40181;51.560;13.000;2023-05-21T01:32:55;100905.38;;;15.20;91.64
54270;BME280;40181;51.560;13.000;2023-05-21T01:35:31;100905.38;;;15.25;91.40
54270;BME280;40181;51.560;13.000;2023-05-21T01:38:12;100900.09;;;15.11;92.63
54270;BME280;40181;51.560;13.000;2023-05-21T01:40:46;100898.31;;;15.08;91.52
54270;BME280;40181;51.560;13.000;2023-05-21T01:43:21;100903.63;;;15.06;92.59
54270;BME280;40181;51.560;13.000;2023-05-21T01:45:53;100902.75;;;15.00;93.31
54270;BME280;40181;51.560;13.000;2023-05-21T01:48:24;100899.22;;;14.94;93.41
54270;BME280;40181;51.560;13.000;2023-05-21T01:50:57;100900.97;;;14.94;93.20
54270;BME280;40181;51.560;13.000;2023-05-21T01:53:31;100893.94;;;14.96;93.25
54270;BME280;40181;51.560;13.000;2023-05-21T01:56:03;100900.13;;;14.95;93.13
54270;BME280;40181;51.560;13.000;2023-05-21T01:58:33;100900.00;;;14.50;96.05
54270;BME280;40181;51.560;13.000;2023-05-21T02:01:02;100905.28;;;14.59;95.78
54270;BME280;40181;51.560;13.000;2023-05-21T02:03:33;100907.09;;;14.63;95.30
54270;BME280;40181;51.560;13.000;2023-05-21T02:06:03;100893.88;;;14.68;95.66
54270;BME280;40181;51.560;13.000;2023-05-21T02:08:34;100899.19;;;14.74;95.25
54270;BME280;40181;51.560;13.000;2023-05-21T02:11:03;100900.03;;;14.64;95.81
54270;BME280;40181;51.560;13.000;2023-05-21T02:13:32;100886.84;;;14.81;94.89
54270;BME280;40181;51.560;13.000;2023-05-21T02:16:05;100892.09;;;14.64;95.31
54270;BME280;40181;51.560;13.000;2023-05-21T02:18:34;100896.50;;;14.65;95.68
54270;BME280;40181;51.560;13.000;2023-05-21T02:21:03;100901.84;;;14.76;94.99
54270;BME280;40181;51.560;13.000;2023-05-21T02:23:35;100898.31;;;14.74;94.74
54270;BME280;40181;51.560;13.000;2023-05-21T02:26:05;100892.16;;;14.87;94.17
54270;BME280;40181;51.560;13.000;2023-05-21T02:28:34;100890.41;;;14.83;94.42
54270;BME280;40181;51.560;13.000;2023-05-21T02:31:04;100887.72;;;14.89;93.89
54270;BME280;40181;51.560;13.000;2023-05-21T02:33:33;100891.25;;;14.84;94.38
54270;BME280;40181;51.560;13.000;2023-05-21T02:36:03;100889.50;;;14.83;94.78
54270;BME280;40181;51.560;13.000;2023-05-21T02:38:39;100881.56;;;14.83;94.42
54270;BME280;40181;51.560;13.000;2023-05-21T02:41:09;100869.22;;;14.94;93.97
54270;BME280;40181;51.560;13.000;2023-05-21T02:43:38;100875.41;;;14.88;93.85
54270;BME280;40181;51.560;13.000;2023-05-21T02:46:07;100878.06;;;14.87;94.09
54270;BME280;40181;51.560;13.000;2023-05-21T02:48:36;100873.63;;;14.81;94.21
54270;BME280;40181;51.560;13.000;2023-05-21T02:51:05;100882.44;;;14.85;94.29
54270;BME280;40181;51.560;13.000;2023-05-21T02:53:34;100879.78;;;14.69;94.44
54270;BME280;40181;51.560;13.000;2023-05-21T02:56:06;100882.41;;;14.63;95.13
54270;BME280;40181;51.560;13.000;2023-05-21T02:58:36;100885.94;;;14.66;95.07
54270;BME280;40181;51.560;13.000;2023-05-21T03:01:05;100884.16;;;14.67;95.41
54270;BME280;40181;51.560;13.000;2023-05-21T03:03:34;100878.00;;;14.63;95.60
54270;BME280;40181;51.560;13.000;2023-05-21T03:06:03;100883.19;;;14.35;96.79
54270;BME280;40181;51.560;13.000;2023-05-21T03:08:34;100877.00;;;14.29;97.34
54270;BME280;40181;51.560;13.000;2023-05-21T03:11:06;100879.66;;;14.29;97.11
54270;BME280;40181;51.560;13.000;2023-05-21T03:13:35;100862.06;;;14.42;97.03
54270;BME280;40181;51.560;13.000;2023-05-21T03:16:04;100870.00;;;14.49;96.19
54270;BME280;40181;51.560;13.000;2023-05-21T03:18:33;100874.44;;;14.57;95.98
54270;BME280;40181;51.560;13.000;2023-05-21T03:21:03;100874.44;;;14.49;96.25
54270;BME280;40181;51.560;13.000;2023-05-21T03:23:32;100870.91;;;14.55;96.04
54270;BME280;40181;51.560;13.000;2023-05-21T03:26:01;100868.28;;;14.51;96.00
54270;BME280;40181;51.560;13.000;2023-05-21T03:28:33;100872.59;;;14.18;97.75
54270;BME280;40181;51.560;13.000;2023-05-21T03:31:03;100874.34;;;14.19;98.39
54270;BME280;40181;51.560;13.000;2023-05-21T03:33:32;100875.28;;;14.37;97.54
54270;BME280;40181;51.560;13.000;2023-05-21T03:36:01;100870.94;;;14.56;96.06
54270;BME280;40181;51.560;13.000;2023-05-21T03:38:30;100858.59;;;14.66;94.89
54270;BME280;40181;51.560;13.000;2023-05-21T03:40:59;100862.13;;;14.71;94.83
54270;BME280;40181;51.560;13.000;2023-05-21T03:43:28;100858.63;;;14.75;94.34
54270;BME280;40181;51.560;13.000;2023-05-21T03:45:59;100864.81;;;14.74;94.78
54270;BME280;40181;51.560;13.000;2023-05-21T03:48:28;100877.16;;;14.74;95.02
54270;BME280;40181;51.560;13.000;2023-05-21T03:50:57;100873.63;;;14.79;94.38
54270;BME280;40181;51.560;13.000;2023-05-21T03:53:26;100878.91;;;14.73;94.41
54270;BME280;40181;51.560;13.000;2023-05-21T03:55:55;100867.47;;;14.77;94.57
54270;BME280;40181;51.560;13.000;2023-05-21T03:58:24;100882.44;;;14.77;94.61
54270;BME280;40181;51.560;13.000;2023-05-21T04:00:53;100886.88;;;14.79;94.31
54270;BME280;40181;51.560;13.000;2023-05-21T04:03:25;100893.91;;;14.80;94.57
54270;BME280;40181;51.560;13.000;2023-05-21T04:05:54;100885.09;;;14.82;94.55
54270;BME280;40181;51.560;13.000;2023-05-21T04:08:23;100886.84;;;14.76;95.01
54270;BME280;40181;51.560;13.000;2023-05-21T04:10:52;100884.22;;;14.75;95.34
54270;BME280;40181;51.560;13.000;2023-05-21T04:13:21;100882.44;;;14.82;95.43
54270;BME280;40181;51.560;13.000;2023-05-21T04:15:50;100895.69;;;14.83;94.65
54270;BME280;40181;51.560;13.000;2023-05-21T04:18:20;100891.22;;;14.71;95.81
54270;BME280;40181;51.560;13.000;2023-05-21T04:20:53;100888.63;;;14.76;95.34
54270;BME280;40181;51.560;13.000;2023-05-21T04:23:23;100893.91;;;14.76;95.85
54270;BME280;40181;51.560;13.000;2023-05-21T04:25:52;100894.81;;;14.79;95.98
54270;BME280;40181;51.560;13.000;2023-05-21T04:28:21;100894.78;;;14.83;95.85
54270;BME280;40181;51.560;13.000;2023-05-21T04:30:53;100896.56;;;14.80;96.15
54270;BME280;40181;51.560;13.000;2023-05-21T04:33:22;100886.81;;;14.70;96.40
54270;BME280;40181;51.560;13.000;2023-05-21T04:35:55;100893.81;;;14.56;98.26
54270;BME280;40181;51.560;13.000;2023-05-21T04:38:24;100893.91;;;14.85;96.77
54270;BME280;40181;51.560;13.000;2023-05-21T04:40:53;100894.81;;;14.84;96.75
54270;BME280;40181;51.560;13.000;2023-05-21T04:43:22;100892.97;;;14.72;97.61
54270;BME280;40181;51.560;13.000;2023-05-21T04:45:52;100892.16;;;14.75;97.95
54270;BME280;40181;51.560;13.000;2023-05-21T04:48:22;100898.31;;;14.78;97.84
54270;BME280;40181;51.560;13.000;2023-05-21T04:50:55;100901.84;;;14.79;97.82
54270;BME280;40181;51.560;13.000;2023-05-21T04:53:24;100905.31;;;14.61;99.12
54270;BME280;40181;51.560;13.000;2023-05-21T04:55:54;100905.31;;;14.72;98.60
54270;BME280;40181;51.560;13.000;2023-05-21T04:58:23;100897.44;;;14.92;98.82
54270;BME280;40181;51.560;13.000;2023-05-21T05:00:52;100901.84;;;14.76;99.70
54270;BME280;40181;51.560;13.000;2023-05-21T05:03:22;100900.97;;;14.99;98.71
54270;BME280;40181;51.560;13.000;2023-05-21T05:05:51;100900.09;;;14.92;99.17
54270;BME280;40181;51.560;13.000;2023-05-21T05:08:22;100888.63;;;15.08;98.64
54270;BME280;40181;51.560;13.000;2023-05-21T05:10:51;100888.63;;;14.98;99.10
54270;BME280;40181;51.560;13.000;2023-05-21T05:13:20;100890.41;;;15.06;98.94
54270;BME280;40181;51.560;13.000;2023-05-21T05:15:50;100888.63;;;15.21;98.72
54270;BME280;40181;51.560;13.000;2023-05-21T05:18:19;100888.66;;;15.19;98.86
54270;BME280;40181;51.560;13.000;2023-05-21T05:20:48;100896.56;;;15.21;98.75
54270;BME280;40181;51.560;13.000;2023-05-21T05:23:18;100885.09;;;15.30;98.54
54270;BME280;40181;51.560;13.000;2023-05-21T05:25:49;100881.56;;;15.25;98.66
54270;BME280;40181;51.560;13.000;2023-05-21T05:28:18;100893.03;;;15.34;98.64
54270;BME280;40181;51.560;13.000;2023-05-21T05:30:47;100882.44;;;15.41;98.18
54270;BME280;40181;51.560;13.000;2023-05-21T05:33:16;100889.50;;;15.31;99.72
54270;BME280;40181;51.560;13.000;2023-05-21T05:35:46;100885.97;;;15.46;98.14
54270;BME280;40181;51.560;13.000;2023-05-21T05:38:15;100890.38;;;15.55;97.74
54270;BME280;40181;51.560;13.000;2023-05-21T05:40:44;100878.00;;;15.63;98.26
54270;BME280;40181;51.560;13.000;2023-05-21T05:43:16;100893.81;;;15.79;97.50
54270;BME280;40181;51.560;13.000;2023-05-21T05:45:45;100890.31;;;15.75;97.97
54270;BME280;40181;51.560;13.000;2023-05-21T05:48:14;100874.41;;;15.75;97.79
54270;BME280;40181;51.560;13.000;2023-05-21T05:50:44;100892.06;;;15.92;97.59
54270;BME280;40181;51.560;13.000;2023-05-21T05:53:14;100884.13;;;15.81;97.12
54270;BME280;40181;51.560;13.000;2023-05-21T05:55:43;100875.25;;;15.99;96.77
54270;BME280;40181;51.560;13.000;2023-05-21T05:58:12;100875.28;;;15.96;96.41
54270;BME280;40181;51.560;13.000;2023-05-21T06:00:44;100871.72;;;15.95;96.46
54270;BME280;40181;51.560;13.000;2023-05-21T06:03:13;100865.50;;;16.07;96.32
54270;BME280;40181;51.560;13.000;2023-05-21T06:05:42;100874.34;;;16.12;95.74
54270;BME280;40181;51.560;13.000;2023-05-21T06:08:11;100867.25;;;16.14;95.64
54270;BME280;40181;51.560;13.000;2023-05-21T06:10:40;100862.84;;;16.07;95.71
54270;BME280;40181;51.560;13.000;2023-05-21T06:13:09;100873.41;;;16.15;96.16
54270;BME280;40181;51.560;13.000;2023-05-21T06:15:41;100870.72;;;16.27;95.37
54270;BME280;40181;51.560;13.000;2023-05-21T06:18:10;100869.81;;;16.28;95.94
54270;BME280;40181;51.560;13.000;2023-05-21T06:20:39;100871.56;;;16.34;95.92
54270;BME280;40181;51.560;13.000;2023-05-21T06:23:08;100859.03;;;16.61;94.82
54270;BME280;40181;51.560;13.000;2023-05-21T06:25:38;100859.91;;;16.60;94.66
54270;BME280;40181;51.560;13.000;2023-05-21T06:28:07;100870.47;;;16.71;93.97
54270;BME280;40181;51.560;13.000;2023-05-21T06:30:36;100857.00;;;16.93;93.60
54270;BME280;40181;51.560;13.000;2023-05-21T06:33:08;100867.63;;;16.91;92.69
54270;BME280;40181;51.560;13.000;2023-05-21T06:35:37;100867.59;;;17.00;93.82
54270;BME280;40181;51.560;13.000;2023-05-21T06:38:06;100870.19;;;17.05;92.99
54270;BME280;40181;51.560;13.000;2023-05-21T06:40:35;100871.94;;;17.11;91.79
54270;BME280;40181;51.560;13.000;2023-05-21T06:43:04;100870.19;;;17.08;92.50
54270;BME280;40181;51.560;13.000;2023-05-21T06:45:33;100869.31;;;17.09;92.52
54270;BME280;40181;51.560;13.000;2023-05-21T06:48:02;100857.56;;;17.32;92.05
54270;BME280;40181;51.560;13.000;2023-05-21T06:50:34;100853.06;;;17.44;90.85
54270;BME280;40181;51.560;13.000;2023-05-21T06:53:03;100861.88;;;17.44;92.85
54270;BME280;40181;51.560;13.000;2023-05-21T06:55:32;100857.28;;;17.60;90.89
54270;BME280;40181;51.560;13.000;2023-05-21T06:58:01;100846.56;;;17.69;89.85
54270;BME280;40181;51.560;13.000;2023-05-21T07:00:30;100865.19;;;17.66;89.46
54270;BME280;40181;51.560;13.000;2023-05-21T07:02:59;100865.03;;;17.80;89.36
54270;BME280;40181;51.560;13.000;2023-05-21T07:05:28;100856.09;;;17.89;88.76
54270;BME280;40181;51.560;13.000;2023-05-21T07:08:00;100859.41;;;18.08;88.61
54270;BME280;40181;51.560;13.000;2023-05-21T07:10:29;100859.13;;;18.29;88.09
54270;BME280;40181;51.560;13.000;2023-05-21T07:12:58;100868.72;;;18.41;87.65
54270;BME280;40181;51.560;13.000;2023-05-21T07:15:27;100849.13;;;18.48;87.32
54270;BME280;40181;51.560;13.000;2023-05-21T07:17:56;100859.44;;;18.68;86.51
54270;BME280;40181;51.560;13.000;2023-05-21T07:20:25;100855.94;;;18.66;85.91
54270;BME280;40181;51.560;13.000;2023-05-21T07:22:55;100851.28;;;18.82;85.15
54270;BME280;40181;51.560;13.000;2023-05-21T07:25:27;100851.16;;;18.88;84.40
54270;BME280;40181;51.560;13.000;2023-05-21T07:27:56;100844.75;;;19.00;84.02
54270;BME280;40181;51.560;13.000;2023-05-21T07:30:25;100855.44;;;18.97;83.65
54270;BME280;40181;51.560;13.000;2023-05-21T07:32:54;100845.66;;;18.98;84.14
54270;BME280;40181;51.560;13.000;2023-05-21T07:35:23;100846.44;;;19.06;82.83
54270;BME280;40181;51.560;13.000;2023-05-21T07:37:53;100837.28;;;19.23;81.83
54270;BME280;40181;51.560;13.000;2023-05-21T07:40:22;100842.28;;;19.41;81.06
54270;BME280;40181;51.560;13.000;2023-05-21T07:42:53;100851.81;;;19.53;80.79
54270;BME280;40181;51.560;13.000;2023-05-21T07:45:23;100837.19;;;19.74;81.86
54270;BME280;40181;51.560;13.000;2023-05-21T07:47:52;100837.13;;;19.77;79.90
54270;BME280;40181;51.560;13.000;2023-05-21T07:50:21;100844.81;;;19.95;78.56
54270;BME280;40181;51.560;13.000;2023-05-21T07:52:50;100845.34;;;20.11;76.87
54270;BME280;40181;51.560;13.000;2023-05-21T07:55:20;100835.22;;;20.27;76.99
54270;BME280;40181;51.560;13.000;2023-05-21T07:57:49;100837.13;;;20.22;76.42
54270;BME280;40181;51.560;13.000;2023-05-21T08:00:22;100834.47;;;20.59;76.95
54270;BME280;40181;51.560;13.000;2023-05-21T08:02:51;100844.63;;;20.43;74.46
54270;BME280;40181;51.560;13.000;2023-05-21T08:05:20;100842.31;;;20.66;73.71
54270;BME280;40181;51.560;13.000;2023-05-21T08:07:49;100837.38;;;20.88;75.46
54270;BME280;40181;51.560;13.000;2023-05-21T08:10:18;100836.69;;;20.78;73.54
54270;BME280;40181;51.560;13.000;2023-05-21T08:12:47;100843.41;;;20.95;72.03
54270;BME280;40181;51.560;13.000;2023-05-21T08:15:16;100843.38;;;20.98;71.60
54270;BME280;40181;51.560;13.000;2023-05-21T08:17:48;100840.75;;;20.95;70.97
54270;BME280;40181;51.560;13.000;2023-05-21T08:20:17;100844.19;;;21.00;71.03
54270;BME280;40181;51.560;13.000;2023-05-21T08:22:47;100842.56;;;21.27;69.98
54270;BME280;40181;51.560;13.000;2023-05-21T08:25:16;100833.81;;;21.22;69.39
54270;BME280;40181;51.560;13.000;2023-05-21T08:27:45;100835.59;;;21.56;69.48
54270;BME280;40181;51.560;13.000;2023-05-21T08:30:14;100838.78;;;21.69;67.17
54270;BME280;40181;51.560;13.000;2023-05-21T08:32:46;100825.34;;;21.73;66.57
54270;BME280;40181;51.560;13.000;2023-05-21T08:35:15;100836.16;;;22.00;66.37
54270;BME280;40181;51.560;13.000;2023-05-21T08:37:44;100837.47;;;22.15;65.47
54270;BME280;40181;51.560;13.000;2023-05-21T08:40:13;100842.84;;;22.15;65.09
54270;BME280;40181;51.560;13.000;2023-05-21T08:42:44;100841.66;;;22.23;64.89
54270;BME280;40181;51.560;13.000;2023-05-21T08:45:16;100841.47;;;22.30;64.95
54270;BME280;40181;51.560;13.000;2023-05-21T08:47:54;100818.91;;;22.38;63.26
54270;BME280;40181;51.560;13.000;2023-05-21T08:50:25;100824.84;;;22.48;63.90
54270;BME280;40181;51.560;13.000;2023-05-21T08:52:55;100822.97;;;22.79;63.70
54270;BME280;40181;51.560;13.000;2023-05-21T08:55:25;100817.78;;;22.74;62.62
54270;BME280;40181;51.560;13.000;2023-05-21T08:57:55;100818.34;;;22.84;62.14
54270;BME280;40181;51.560;13.000;2023-05-21T09:00:24;100807.25;;;22.95;61.86
54270;BME280;40181;51.560;13.000;2023-05-21T09:02:55;100811.19;;;22.85;62.55
54270;BME280;40181;51.560;13.000;2023-05-21T09:05:25;100808.44;;;23.13;63.60
54270;BME280;40181;51.560;13.000;2023-05-21T09:08:05;100814.16;;;23.55;62.98
54270;BME280;40181;51.560;13.000;2023-05-21T09:10:38;100809.34;;;23.63;60.50
54270;BME280;40181;51.560;13.000;2023-05-21T09:13:10;100811.13;;;23.64;61.61
54270;BME280;40181;51.560;13.000;2023-05-21T09:15:39;100806.91;;;23.57;59.79
54270;BME280;40181;51.560;13.000;2023-05-21T09:18:11;100801.03;;;23.71;59.37
54270;BME280;40181;51.560;13.000;2023-05-21T09:20:41;100812.66;;;23.94;60.11
54270;BME280;40181;51.560;13.000;2023-05-21T09:23:10;100816.88;;;24.01;57.58
54270;BME280;40181;51.560;13.000;2023-05-21T09:25:44;100800.69;;;23.80;58.48
54270;BME280;40181;51.560;13.000;2023-05-21T09:28:15;100811.88;;;24.15;57.66
54270;BME280;40181;51.560;13.000;2023-05-21T09:30:45;100810.44;;;24.29;58.16
54270;BME280;40181;51.560;13.000;2023-05-21T09:33:26;100805.88;;;24.53;59.91
54270;BME280;40181;51.560;13.000;2023-05-21T09:35:56;100801.53;;;24.28;57.37
54270;BME280;40181;51.560;13.000;2023-05-21T09:38:26;100802.34;;;24.73;59.20
54270;BME280;40181;51.560;13.000;2023-05-21T09:40:55;100813.44;;;24.66;56.66
54270;BME280;40181;51.560;13.000;2023-05-21T09:43:24;100809.25;;;24.81;56.41
54270;BME280;40181;51.560;13.000;2023-05-21T09:45:55;100795.69;;;24.84;57.60
54270;BME280;40181;51.560;13.000;2023-05-21T09:48:37;100799.94;;;25.10;57.26
54270;BME280;40181;51.560;13.000;2023-05-21T09:51:12;100802.03;;;25.24;56.58
54270;BME280;40181;51.560;13.000;2023-05-21T09:53:52;100800.50;;;25.38;56.64
54270;BME280;40181;51.560;13.000;2023-05-21T09:56:25;100798.03;;;25.33;53.95
54270;BME280;40181;51.560;13.000;2023-05-21T09:58:56;100792.91;;;25.48;54.69
54270;BME280;40181;51.560;13.000;2023-05-21T10:01:29;100795.59;;;25.68;53.19
54270;BME280;40181;51.560;13.000;2023-05-21T10:04:05;100787.91;;;25.80;53.70
54270;BME280;40181;51.560;13.000;2023-05-21T10:06:37;100792.03;;;25.87;53.41
54270;BME280;40181;51.560;13.000;2023-05-21T10:09:13;100786.50;;;25.71;54.64
54270;BME280;40181;51.560;13.000;2023-05-21T10:11:43;100783.44;;;25.79;55.56
54270;BME280;40181;51.560;13.000;2023-05-21T10:14:16;100777.00;;;26.02;52.54
54270;BME280;40181;51.560;13.000;2023-05-21T10:16:47;100783.03;;;26.27;51.24
54270;BME280;40181;51.560;13.000;2023-05-21T10:19:19;100781.63;;;26.37;50.32
54270;BME280;40181;51.560;13.000;2023-05-21T10:21:51;100780.59;;;26.40;51.10
54270;BME280;40181;51.560;13.000;2023-05-21T10:24:22;100785.41;;;26.33;51.51
54270;BME280;40181;51.560;13.000;2023-05-21T10:26:51;100777.88;;;26.22;49.85
54270;BME280;40181;51.560;13.000;2023-05-21T10:29:22;100780.47;;;26.04;51.81
54270;BME280;40181;51.560;13.000;2023-05-21T10:31:51;100777.25;;;26.34;49.46
54270;BME280;40181;51.560;13.000;2023-05-21T10:34:23;100771.44;;;26.24;50.42
54270;BME280;40181;51.560;13.000;2023-05-21T10:36:53;100764.50;;;26.19;49.60
54270;BME280;40181;51.560;13.000;2023-05-21T10:39:22;100767.38;;;26.35;48.46
54270;BME280;40181;51.560;13.000;2023-05-21T10:42:11;100762.06;;;26.51;48.01
54270;BME280;40181;51.560;13.000;2023-05-21T10:44:59;100757.19;;;26.77;47.58
54270;BME280;40181;51.560;13.000;2023-05-21T10:47:46;100757.97;;;26.97;47.66
54270;BME280;40181;51.560;13.000;2023-05-21T10:50:44;100766.34;;;26.55;46.83
54270;BME280;40181;51.560;13.000;2023-05-21T10:53:34;100752.19;;;27.04;48.56
54270;BME280;40181;51.560;13.000;2023-05-21T10:56:17;100754.59;;;27.27;44.36
54270;BME280;40181;51.560;13.000;2023-05-21T10:59:16;100757.69;;;27.37;43.84
54270;BME280;40181;51.560;13.000;2023-05-21T11:01:52;100758.28;;;26.90;43.04
54270;BME280;40181;51.560;13.000;2023-05-21T11:04:24;100746.41;;;26.95;44.76
54270;BME280;40181;51.560;13.000;2023-05-21T11:06:57;100749.25;;;27.60;45.70
54270;BME280;40181;51.560;13.000;2023-05-21T11:09:26;100759.00;;;27.45;44.97
54270;BME280;40181;51.560;13.000;2023-05-21T11:11:56;100741.41;;;27.56;46.30
54270;BME280;40181;51.560;13.000;2023-05-21T11:14:31;100758.31;;;27.75;40.88
54270;BME280;40181;51.560;13.000;2023-05-21T11:17:09;100750.50;;;27.19;41.63
54270;BME280;40181;51.560;13.000;2023-05-21T11:19:41;100738.72;;;27.72;45.10
54270;BME280;40181;51.560;13.000;2023-05-21T11:22:24;100748.88;;;27.33;42.09
54270;BME280;40181;51.560;13.000;2023-05-21T11:24:54;100742.28;;;27.88;42.72
54270;BME280;40181;51.560;13.000;2023-05-21T11:27:32;100746.03;;;27.86;42.33
54270;BME280;40181;51.560;13.000;2023-05-21T11:30:04;100740.56;;;27.87;41.90
54270;BME280;40181;51.560;13.000;2023-05-21T11:32:37;100746.00;;;28.02;42.70
54270;BME280;40181;51.560;13.000;2023-05-21T11:35:07;100744.31;;;27.51;42.07
54270;BME280;40181;51.560;13.000;2023-05-21T11:37:38;100746.09;;;27.84;44.13
54270;BME280;40181;51.560;13.000;2023-05-21T11:40:17;100742.53;;;27.34;40.00
54270;BME280;40181;51.560;13.000;2023-05-21T11:42:49;100744.44;;;27.66;39.51
54270;BME280;40181;51.560;13.000;2023-05-21T11:45:20;100726.56;;;28.11;41.13
54270;BME280;40181;51.560;13.000;2023-05-21T11:47:50;100721.50;;;28.37;41.29
54270;BME280;40181;51.560;13.000;2023-05-21T11:50:20;100738.41;;;28.41;42.19
54270;BME280;40181;51.560;13.000;2023-05-21T11:52:52;100730.16;;;28.12;42.33
54270;BME280;40181;51.560;13.000;2023-05-21T11:55:21;100725.88;;;28.40;42.12
54270;BME280;40181;51.560;13.000;2023-05-21T11:57:52;100735.97;;;28.36;43.35
54270;BME280;40181;51.560;13.000;2023-05-21T12:00:22;100724.28;;;28.66;42.04
54270;BME280;40181;51.560;13.000;2023-05-21T12:02:51;100735.38;;;28.62;40.82
54270;BME280;40181;51.560;13.000;2023-05-21T12:05:21;100723.22;;;28.54;40.60
54270;BME280;40181;51.560;13.000;2023-05-21T12:07:53;100724.72;;;28.44;39.78
54270;BME280;40181;51.560;13.000;2023-05-21T12:10:22;100727.53;;;28.26;39.60
54270;BME280;40181;51.560;13.000;2023-05-21T12:12:51;100722.81;;;28.30;40.41
54270;BME280;40181;51.560;13.000;2023-05-21T12:15:21;100725.56;;;27.98;41.65
54270;BME280;40181;51.560;13.000;2023-05-21T12:17:50;100729.78;;;28.18;41.31
54270;BME280;40181;51.560;13.000;2023-05-21T12:20:19;100723.44;;;28.66;40.18
54270;BME280;40181;51.560;13.000;2023-05-21T12:22:48;100713.06;;;28.43;39.94
54270;BME280;40181;51.560;13.000;2023-05-21T12:25:20;100716.81;;;28.41;36.84
54270;BME280;40181;51.560;13.000;2023-05-21T12:27:49;100718.34;;;28.45;35.96
54270;BME280;40181;51.560;13.000;2023-05-21T12:30:23;100704.31;;;28.69;37.69
54270;BME280;40181;51.560;13.000;2023-05-21T12:32:52;100718.81;;;28.68;36.41
54270;BME280;40181;51.560;13.000;2023-05-21T12:35:26;100715.63;;;27.98;36.62
54270;BME280;40181;51.560;13.000;2023-05-21T12:37:55;100711.84;;;28.64;36.83
54270;BME280;40181;51.560;13.000;2023-05-21T12:40:36;100716.84;;;29.01;36.58
54270;BME280;40181;51.560;13.000;2023-05-21T12:43:07;100709.84;;;28.82;35.91
54270;BME280;40181;51.560;13.000;2023-05-21T12:45:36;100719.06;;;28.94;36.17
54270;BME280;40181;51.560;13.000;2023-05-21T12:48:06;100713.69;;;28.33;36.14
54270;BME280;40181;51.560;13.000;2023-05-21T12:50:38;100720.41;;;28.87;36.51
54270;BME280;40181;51.560;13.000;2023-05-21T12:53:08;100713.66;;;28.94;37.59
54270;BME280;40181;51.560;13.000;2023-05-21T12:55:41;100710.66;;;28.07;36.43
54270;BME280;40181;51.560;13.000;2023-05-21T12:58:12;100705.25;;;28.84;36.80